createdAt,value
2018-05-21T00:01:00.734Z,15.87
2018-05-21T00:03:28.261Z,17.03
2018-05-21T00:05:55.783Z,22.57
2018-05-21T00:08:24.069Z,15.53
2018-05-21T00:10:51.604Z,18.50
2018-05-21T00:13:19.124Z,16.83
2018-05-21T00:15:46.653Z,16.60
2018-05-21T00:18:14.183Z,29.17
2018-05-21T00:20:41.713Z,50.77
2018-05-21T00:23:09.239Z,23.87
2018-05-21T00:25:36.751Z,93.57
2018-05-21T00:28:04.284Z,13.93
2018-05-21T00:30:31.801Z,41.73
2018-05-21T00:32:59.327Z,26.67
2018-05-21T00:35:26.848Z,44.27
2018-05-21T00:37:54.368Z,29.43
2018-05-21T00:40:22.668Z,28.97
2018-05-21T00:42:50.195Z,22.93
2018-05-21T00:45:18.501Z,19.00
2018-05-21T00:47:46.023Z,20.73
2018-05-21T00:50:13.549Z,20.53
2018-05-21T00:52:41.071Z,28.90
2018-05-21T00:55:20.395Z,30.83
2018-05-21T00:57:48.685Z,22.93
2018-05-21T01:00:16.229Z,29.60
2018-05-21T01:02:44.516Z,49.47
2018-05-21T01:05:12.043Z,20.10
2018-05-21T01:07:39.641Z,28.20
2018-05-21T01:10:07.100Z,33.63
2018-05-21T01:12:34.650Z,18.50
2018-05-21T01:15:02.187Z,24.80
2018-05-21T01:17:30.481Z,38.43
2018-05-21T01:19:58.023Z,37.17
2018-05-21T01:22:26.305Z,25.43
2018-05-21T01:24:54.620Z,21.20
2018-05-21T01:27:22.123Z,23.13
2018-05-21T01:29:49.639Z,23.83
2018-05-21T01:32:17.181Z,20.57
2018-05-21T01:34:44.692Z,20.03
2018-05-21T01:37:12.236Z,18.43
2018-05-21T01:39:39.753Z,38.97
2018-05-21T01:42:07.290Z,49.03
2018-05-21T01:44:35.563Z,37.20
2018-05-21T01:47:03.849Z,21.50
2018-05-21T01:49:32.135Z,19.60
2018-05-21T01:51:59.644Z,34.03
2018-05-21T01:54:27.186Z,37.63
2018-05-21T01:56:54.692Z,28.53
2018-05-21T01:59:22.980Z,19.30
2018-05-21T02:01:51.285Z,39.30
2018-05-21T02:04:18.807Z,31.10
2018-05-21T02:06:47.107Z,43.27
2018-05-21T02:09:14.611Z,58.90
2018-05-21T02:11:42.125Z,65.00
2018-05-21T02:14:09.657Z,62.13
2018-05-21T02:16:37.943Z,38.37
2018-05-21T02:19:06.259Z,23.10
2018-05-21T02:21:33.764Z,40.03
2018-05-21T02:24:01.275Z,25.13
2018-05-21T02:26:28.796Z,50.97
2018-05-21T02:28:57.082Z,31.30
2018-05-21T02:31:24.611Z,15.17
2018-05-21T02:33:52.128Z,23.77
2018-05-21T02:36:19.636Z,11.87
2018-05-21T02:38:47.942Z,19.13
2018-05-21T02:41:15.517Z,59.40
2018-05-21T02:43:42.989Z,32.43
2018-05-21T02:46:10.506Z,76.47
2018-05-21T02:48:38.811Z,67.87
2018-05-21T02:51:06.317Z,94.37
2018-05-21T02:53:33.843Z,82.97
2018-05-21T02:56:01.358Z,51.23
2018-05-21T02:58:28.871Z,50.70
2018-05-21T03:00:56.417Z,22.73
2018-05-21T03:03:23.925Z,29.60
2018-05-21T03:05:52.209Z,17.07
2018-05-21T03:08:20.505Z,29.17
2018-05-21T03:10:48.018Z,13.70
2018-05-21T03:13:15.891Z,50.53
2018-05-21T03:15:43.407Z,20.97
2018-05-21T03:18:10.938Z,17.17
2018-05-21T03:20:38.444Z,22.80
2018-05-21T03:23:05.957Z,12.17
2018-05-21T03:25:33.495Z,76.80
2018-05-21T03:28:01.769Z,11.70
2018-05-21T03:30:30.079Z,13.70
2018-05-21T03:32:57.609Z,28.13
2018-05-21T03:35:25.890Z,7.70
2018-05-21T03:37:53.789Z,26.63
2018-05-21T03:40:21.305Z,32.40
2018-05-21T03:42:49.597Z,14.50
2018-05-21T03:45:17.108Z,25.90
2018-05-21T03:47:44.610Z,17.13
2018-05-21T03:50:12.141Z,9.30
2018-05-21T03:52:39.646Z,9.50
2018-05-21T03:55:07.253Z,18.67
2018-05-21T03:57:35.458Z,9.70
2018-05-21T04:00:15.701Z,8.73
2018-05-21T04:02:54.986Z,15.67
2018-05-21T04:05:22.496Z,5.30
2018-05-21T04:07:50.777Z,5.95
2018-05-21T04:10:19.081Z,5.27
2018-05-21T04:12:46.601Z,14.33
2018-05-21T04:15:14.104Z,34.10
2018-05-21T04:17:41.642Z,5.53
2018-05-21T04:20:09.152Z,10.07
2018-05-21T04:22:36.676Z,5.50
2018-05-21T04:25:04.173Z,7.70
2018-05-21T04:27:32.454Z,6.53
2018-05-21T04:29:59.982Z,26.00
2018-05-21T04:32:27.491Z,5.77
2018-05-21T04:34:55.792Z,10.57
2018-05-21T04:37:23.291Z,7.90
2018-05-21T04:39:50.803Z,5.87
2018-05-21T04:42:19.092Z,8.40
2018-05-21T04:44:47.024Z,15.33
2018-05-21T04:47:14.557Z,6.50
2018-05-21T04:49:42.056Z,15.60
2018-05-21T04:52:10.338Z,7.60
2018-05-21T04:54:38.615Z,5.80
2018-05-21T04:57:06.889Z,6.60
2018-05-21T04:59:35.200Z,5.10
2018-05-21T05:02:02.709Z,5.13
2018-05-21T05:04:30.208Z,11.70
2018-05-21T05:06:57.724Z,4.77
2018-05-21T05:09:25.227Z,5.00
2018-05-21T05:11:52.770Z,5.27
2018-05-21T05:14:20.277Z,6.23
2018-05-21T05:16:47.789Z,4.47
2018-05-21T05:19:15.322Z,5.27
2018-05-21T05:21:44.328Z,10.80
2018-05-21T05:24:12.633Z,5.37
2018-05-21T05:26:40.173Z,5.80
2018-05-21T05:29:08.432Z,5.77
2018-05-21T05:31:36.719Z,5.07
2018-05-21T05:34:05.007Z,5.23
2018-05-21T05:36:32.558Z,5.60
2018-05-21T05:39:00.846Z,5.03
2018-05-21T05:41:28.355Z,5.40
2018-05-21T05:43:55.872Z,4.47
2018-05-21T05:46:23.371Z,4.90
2018-05-21T05:48:50.898Z,5.63
2018-05-21T05:51:18.419Z,6.10
2018-05-21T05:53:46.688Z,5.13
2018-05-21T05:56:14.994Z,5.10
2018-05-21T05:58:42.499Z,5.80
2018-05-21T06:01:10.038Z,6.00
2018-05-21T06:03:37.640Z,8.27
2018-05-21T06:06:05.075Z,5.10
2018-05-21T06:08:32.581Z,6.57
2018-05-21T06:11:00.186Z,4.07
2018-05-21T06:13:27.649Z,3.90
2018-05-21T06:15:55.156Z,4.40
2018-05-21T06:18:22.689Z,4.77
2018-05-21T06:20:50.195Z,4.87
2018-05-21T06:23:17.727Z,6.00
2018-05-21T06:25:45.297Z,5.63
2018-05-21T06:28:12.776Z,5.80
2018-05-21T06:30:40.304Z,5.20
2018-05-21T06:33:07.820Z,5.40
2018-05-21T06:35:35.356Z,5.20
2018-05-21T06:38:02.869Z,6.60
2018-05-21T06:40:31.151Z,7.03
2018-05-21T06:42:58.689Z,5.87
2018-05-21T06:45:26.192Z,4.30
2018-05-21T06:47:53.709Z,5.37
2018-05-21T06:50:21.216Z,5.90
2018-05-21T06:52:48.728Z,5.23
2018-05-21T06:55:16.233Z,9.57
2018-05-21T06:57:43.760Z,7.70
2018-05-21T07:00:12.024Z,5.17
2018-05-21T07:02:40.287Z,5.77
2018-05-21T07:05:07.813Z,6.93
2018-05-21T07:07:35.335Z,5.50
2018-05-21T07:10:03.628Z,5.87
2018-05-21T07:12:31.139Z,5.87
2018-05-21T07:14:58.655Z,5.27
2018-05-21T07:17:26.163Z,5.10
2018-05-21T07:19:53.673Z,6.30
2018-05-21T07:22:21.194Z,6.70
2018-05-21T07:24:49.482Z,4.20
2018-05-21T07:27:17.786Z,4.20
2018-05-21T07:29:46.058Z,13.13
2018-05-21T07:32:13.580Z,3.60
2018-05-21T07:34:41.850Z,5.50
2018-05-21T07:37:10.119Z,3.37
2018-05-21T07:39:37.650Z,4.20
2018-05-21T07:42:05.162Z,2.97
2018-05-21T07:44:33.460Z,4.40
2018-05-21T07:47:00.970Z,5.23
2018-05-21T07:49:28.472Z,3.60
2018-05-21T07:51:55.996Z,8.40
2018-05-21T07:54:24.269Z,2.90
2018-05-21T07:56:51.793Z,3.30
2018-05-21T07:59:19.285Z,3.73
2018-05-21T08:01:47.571Z,4.40
2018-05-21T08:04:15.851Z,4.13
2018-05-21T08:06:44.118Z,3.53
2018-05-21T08:09:12.418Z,7.10
2018-05-21T08:11:39.933Z,3.67
2018-05-21T08:14:07.461Z,2.80
2018-05-21T08:16:35.747Z,3.70
2018-05-21T08:19:03.284Z,6.10
2018-05-21T08:21:31.566Z,4.03
2018-05-21T08:23:59.850Z,4.97
2018-05-21T08:26:27.368Z,3.30
2018-05-21T08:28:55.641Z,3.63
2018-05-21T08:31:23.939Z,3.47
2018-05-21T08:33:51.450Z,6.33
2018-05-21T08:36:18.953Z,6.40
2018-05-21T08:38:46.468Z,3.57
2018-05-21T08:41:13.981Z,3.87
2018-05-21T08:43:41.504Z,3.27
2018-05-21T08:46:09.769Z,3.17
2018-05-21T08:48:38.149Z,3.30
2018-05-21T08:51:05.606Z,4.93
2018-05-21T08:53:33.112Z,2.63
2018-05-21T08:56:00.663Z,2.37
2018-05-21T08:58:28.176Z,5.40
2018-05-21T09:00:55.689Z,3.27
2018-05-21T09:03:23.202Z,8.90
2018-05-21T09:05:50.728Z,4.63
2018-05-21T09:08:18.996Z,2.60
2018-05-21T09:10:46.497Z,3.10
2018-05-21T09:13:14.016Z,4.70
2018-05-21T09:15:41.517Z,4.07
2018-05-21T09:18:09.808Z,3.57
2018-05-21T09:20:38.081Z,3.83
2018-05-21T09:23:06.356Z,3.03
2018-05-21T09:25:34.654Z,2.77
2018-05-21T09:28:02.149Z,4.40
2018-05-21T09:30:29.691Z,5.23
2018-05-21T09:32:57.187Z,2.63
2018-05-21T09:35:24.686Z,4.90
2018-05-21T09:37:52.204Z,3.07
2018-05-21T09:40:19.721Z,3.13
2018-05-21T09:42:47.248Z,3.27
2018-05-21T09:45:14.779Z,2.73
2018-05-21T09:47:42.281Z,5.03
2018-05-21T09:50:09.800Z,3.20
2018-05-21T09:52:37.324Z,2.87
2018-05-21T09:55:04.857Z,2.80
2018-05-21T09:57:32.370Z,2.60
2018-05-21T09:59:59.872Z,3.00
2018-05-21T10:02:27.388Z,7.00
2018-05-21T10:04:54.888Z,6.20
2018-05-21T10:07:22.424Z,2.80
2018-05-21T10:09:50.705Z,7.50
2018-05-21T10:12:18.967Z,4.30
2018-05-21T10:14:46.490Z,4.27
2018-05-21T10:17:14.003Z,4.13
2018-05-21T10:19:42.296Z,2.70
2018-05-21T10:22:09.791Z,2.97
2018-05-21T10:24:37.296Z,2.80
2018-05-21T10:27:05.580Z,3.33
2018-05-21T10:29:33.075Z,2.67
2018-05-21T10:32:00.610Z,5.90
2018-05-21T10:34:28.126Z,1.90
2018-05-21T10:36:55.650Z,5.37
2018-05-21T10:39:23.145Z,2.37
2018-05-21T10:41:50.678Z,2.60
2018-05-21T10:44:18.192Z,2.30
2018-05-21T10:46:45.701Z,1.83
2018-05-21T10:49:13.231Z,3.27
2018-05-21T10:51:40.727Z,2.33
2018-05-21T10:54:08.252Z,2.23
2018-05-21T10:56:35.753Z,4.93
2018-05-21T10:59:03.256Z,3.83
2018-05-21T11:01:30.773Z,2.40
2018-05-21T11:03:59.051Z,1.70
2018-05-21T11:06:27.350Z,1.93
2018-05-21T11:08:54.852Z,3.30
2018-05-21T11:11:22.393Z,2.33
2018-05-21T11:13:49.905Z,5.07
2018-05-21T11:16:18.176Z,2.77
2018-05-21T11:18:45.696Z,1.93
2018-05-21T11:21:13.196Z,2.03
2018-05-21T11:23:41.486Z,2.40
2018-05-21T11:26:09.768Z,1.93
2018-05-21T11:28:38.051Z,2.17
2018-05-21T11:31:05.568Z,3.63
2018-05-21T11:33:33.072Z,2.07
2018-05-21T11:36:00.605Z,4.87
2018-05-21T11:38:28.894Z,21.73
2018-05-21T11:40:57.169Z,1.83
2018-05-21T11:43:25.462Z,2.37
2018-05-21T11:45:52.965Z,3.07
2018-05-21T11:48:20.493Z,2.00
2018-05-21T11:50:48.017Z,2.20
2018-05-21T11:53:15.565Z,2.50
2018-05-21T11:55:43.074Z,8.20
2018-05-21T11:58:10.585Z,8.73
2018-05-21T12:00:38.881Z,1.70
2018-05-21T12:03:06.375Z,2.30
2018-05-21T12:05:33.895Z,2.00
2018-05-21T12:08:02.165Z,3.10
2018-05-21T12:10:30.435Z,1.97
2018-05-21T12:12:58.726Z,2.53
2018-05-21T12:15:26.237Z,2.67
2018-05-21T12:17:53.766Z,1.67
2018-05-21T12:20:21.277Z,2.00
2018-05-21T12:22:48.800Z,1.97
2018-05-21T12:25:17.089Z,6.27
2018-05-21T12:27:44.605Z,1.93
2018-05-21T12:30:12.124Z,4.00
2018-05-21T12:32:39.630Z,1.97
2018-05-21T12:35:07.144Z,3.97
2018-05-21T12:37:34.668Z,7.57
2018-05-21T12:40:02.163Z,3.97
2018-05-21T12:42:30.473Z,2.83
2018-05-21T12:44:57.971Z,2.97
2018-05-21T12:47:25.486Z,5.80
2018-05-21T12:49:53.004Z,2.10
2018-05-21T12:52:20.518Z,6.50
2018-05-21T12:54:48.080Z,2.03
2018-05-21T12:57:16.320Z,3.10
2018-05-21T12:59:44.620Z,2.50
2018-05-21T13:02:12.134Z,5.90
2018-05-21T13:04:39.638Z,2.50
2018-05-21T13:07:07.171Z,2.40
2018-05-21T13:09:35.450Z,2.77
2018-05-21T13:12:03.760Z,3.43
2018-05-21T13:14:31.265Z,7.80
2018-05-21T13:16:58.767Z,2.33
2018-05-21T13:19:26.294Z,2.67
2018-05-21T13:21:54.567Z,2.60
2018-05-21T13:24:22.957Z,2.03
2018-05-21T13:26:50.381Z,2.23
2018-05-21T13:29:17.907Z,2.10
2018-05-21T13:31:45.404Z,2.30
2018-05-21T13:34:12.904Z,3.00
2018-05-21T13:36:40.441Z,3.67
2018-05-21T13:39:08.718Z,3.13
2018-05-21T13:41:37.008Z,2.50
2018-05-21T13:44:04.532Z,2.00
2018-05-21T13:46:32.040Z,2.60
2018-05-21T13:48:59.560Z,2.50
2018-05-21T13:51:27.084Z,3.90
2018-05-21T13:53:54.616Z,3.03
2018-05-21T13:56:22.125Z,5.53
2018-05-21T13:58:49.640Z,3.97
2018-05-21T14:01:17.166Z,2.50
2018-05-21T14:03:45.445Z,1.73
2018-05-21T14:06:13.767Z,1.90
2018-05-21T14:08:41.285Z,1.50
2018-05-21T14:11:09.570Z,1.53
2018-05-21T14:13:37.107Z,1.87
2018-05-21T14:16:05.385Z,1.83
2018-05-21T14:18:33.677Z,1.73
2018-05-21T14:21:01.959Z,2.10
2018-05-21T14:23:29.485Z,2.13
2018-05-21T14:25:57.008Z,7.40
2018-05-21T14:28:24.525Z,1.90
2018-05-21T14:30:52.825Z,2.73
2018-05-21T14:33:20.423Z,1.60
2018-05-21T14:35:47.874Z,1.73
2018-05-21T14:38:18.341Z,1.60
2018-05-21T14:40:46.617Z,1.93
2018-05-21T14:43:14.899Z,1.47
2018-05-21T14:45:43.190Z,1.30
2018-05-21T14:48:10.727Z,1.37
2018-05-21T14:50:38.999Z,1.30
2018-05-21T14:53:07.282Z,1.60
2018-05-21T14:55:35.582Z,1.40
2018-05-21T14:58:03.101Z,2.20
2018-05-21T15:00:30.641Z,1.70
2018-05-21T15:02:58.162Z,1.27
2018-05-21T15:05:25.683Z,1.60
2018-05-21T15:07:53.206Z,2.60
2018-05-21T15:10:20.726Z,1.50
2018-05-21T15:12:48.262Z,1.63
2018-05-21T15:15:16.527Z,1.63
2018-05-21T15:17:45.536Z,2.30
2018-05-21T15:20:13.820Z,3.20
2018-05-21T15:22:42.103Z,2.00
2018-05-21T15:25:10.411Z,3.07
2018-05-21T15:27:37.909Z,2.23
2018-05-21T15:30:05.427Z,2.63
2018-05-21T15:32:32.950Z,2.17
2018-05-21T15:35:01.216Z,2.27
2018-05-21T15:37:29.518Z,2.60
2018-05-21T15:39:57.028Z,2.77
2018-05-21T15:42:24.537Z,2.03
2018-05-21T15:44:52.066Z,1.80
2018-05-21T15:47:20.350Z,3.50
2018-05-21T15:49:48.653Z,3.40
2018-05-21T15:52:16.163Z,2.57
2018-05-21T15:54:43.683Z,2.53
2018-05-21T15:57:11.215Z,2.60
2018-05-21T15:59:38.726Z,2.60
2018-05-21T16:02:06.279Z,2.90
2018-05-21T16:04:33.795Z,2.67
2018-05-21T16:07:01.314Z,3.57
2018-05-21T16:09:28.845Z,3.70
2018-05-21T16:11:56.357Z,1.90
2018-05-21T16:14:24.653Z,2.70
2018-05-21T16:16:52.164Z,3.90
2018-05-21T16:19:19.675Z,2.23
2018-05-21T16:21:47.192Z,2.57
2018-05-21T16:24:14.700Z,5.17
2018-05-21T16:26:42.229Z,4.17
2018-05-21T16:29:10.498Z,2.70
2018-05-21T16:31:38.783Z,2.80
2018-05-21T16:34:07.082Z,4.90
2018-05-21T16:36:35.347Z,2.43
2018-05-21T16:39:02.897Z,3.33
2018-05-21T16:41:31.173Z,2.27
2018-05-21T16:43:58.696Z,2.70
2018-05-21T16:46:26.219Z,3.10
2018-05-21T16:48:53.730Z,3.77
2018-05-21T16:51:21.255Z,2.60
2018-05-21T16:53:48.864Z,2.10
2018-05-21T16:56:16.289Z,2.90
2018-05-21T16:58:43.820Z,2.60
2018-05-21T17:01:11.330Z,2.00
2018-05-21T17:03:39.626Z,3.30
2018-05-21T17:06:07.141Z,2.43
2018-05-21T17:08:34.645Z,2.90
2018-05-21T17:11:02.242Z,2.57
2018-05-21T17:13:29.724Z,2.33
2018-05-21T17:15:57.264Z,9.10
2018-05-21T17:18:24.764Z,3.17
2018-05-21T17:20:53.035Z,2.63
2018-05-21T17:23:21.334Z,3.47
2018-05-21T17:25:48.850Z,5.60
2018-05-21T17:28:16.379Z,2.53
2018-05-21T17:30:43.876Z,2.67
2018-05-21T17:33:11.384Z,2.90
2018-05-21T17:35:38.959Z,2.13
2018-05-21T17:38:06.436Z,2.47
2018-05-21T17:40:33.957Z,2.30
2018-05-21T17:43:01.496Z,2.00
2018-05-21T17:45:29.030Z,2.33
2018-05-21T17:47:56.531Z,2.40
2018-05-21T17:50:24.116Z,3.40
2018-05-21T17:52:51.588Z,6.00
2018-05-21T17:55:19.134Z,3.57
2018-05-21T17:57:46.748Z,2.20
2018-05-21T18:00:14.213Z,5.40
2018-05-21T18:02:41.751Z,3.77
2018-05-21T18:05:10.017Z,2.30
2018-05-21T18:07:37.520Z,2.53
2018-05-21T18:10:05.056Z,4.33
2018-05-21T18:12:33.335Z,6.80
2018-05-21T18:15:01.642Z,1.90
2018-05-21T18:17:29.154Z,2.80
2018-05-21T18:19:57.429Z,2.60
2018-05-21T18:22:25.727Z,2.20
2018-05-21T18:24:54.082Z,3.00
2018-05-21T18:27:22.371Z,4.27
2018-05-21T18:29:50.635Z,2.50
2018-05-21T18:32:18.908Z,4.23
2018-05-21T18:34:47.210Z,2.17
2018-05-21T18:37:15.476Z,2.80
2018-05-21T18:39:43.778Z,2.77
2018-05-21T18:42:11.377Z,2.77
2018-05-21T18:44:39.568Z,3.00
2018-05-21T18:47:07.088Z,4.83
2018-05-21T18:49:34.602Z,6.50
2018-05-21T18:52:02.900Z,5.07
2018-05-21T18:54:30.423Z,5.97
2018-05-21T18:56:57.920Z,3.93
2018-05-21T18:59:25.471Z,3.20
2018-05-21T19:01:52.982Z,2.90
2018-05-21T19:04:20.526Z,7.40
2018-05-21T19:06:48.039Z,2.83
2018-05-21T19:09:16.317Z,2.87
2018-05-21T19:11:44.599Z,4.60
2018-05-21T19:14:12.110Z,2.87
2018-05-21T19:16:39.636Z,5.63
2018-05-21T19:19:07.138Z,2.80
2018-05-21T19:21:34.653Z,2.40
2018-05-21T19:24:02.175Z,4.57
2018-05-21T19:26:30.450Z,2.90
2018-05-21T19:28:58.750Z,4.30
2018-05-21T19:31:26.256Z,3.13
2018-05-21T19:33:53.757Z,4.10
2018-05-21T19:36:22.049Z,6.20
2018-05-21T19:38:49.548Z,2.43
2018-05-21T19:41:17.083Z,3.30
2018-05-21T19:43:44.590Z,2.57
2018-05-21T19:46:12.860Z,3.63
2018-05-21T19:48:40.378Z,8.43
2018-05-21T19:51:07.877Z,6.13
2018-05-21T19:53:35.414Z,2.70
2018-05-21T19:56:02.914Z,4.07
2018-05-21T19:58:31.189Z,8.10
2018-05-21T20:00:59.495Z,2.97
2018-05-21T20:03:26.992Z,3.03
2018-05-21T20:05:54.523Z,15.70
2018-05-21T20:08:22.042Z,9.40
2018-05-21T20:10:50.314Z,5.13
2018-05-21T20:13:18.610Z,4.37
2018-05-21T20:15:46.124Z,3.70
2018-05-21T20:18:13.657Z,12.13
2018-05-21T20:20:42.881Z,3.27
2018-05-21T20:23:10.418Z,9.27
2018-05-21T20:25:37.915Z,3.23
2018-05-21T20:28:06.193Z,3.53
2018-05-21T20:30:34.486Z,3.70
2018-05-21T20:33:02.761Z,4.50
2018-05-21T20:35:31.067Z,2.90
2018-05-21T20:37:58.577Z,5.27
2018-05-21T20:40:26.858Z,3.20
2018-05-21T20:42:55.157Z,11.80
2018-05-21T20:45:22.697Z,3.40
2018-05-21T20:47:51.832Z,3.50
2018-05-21T20:50:19.345Z,6.93
2018-05-21T20:52:47.617Z,3.73
2018-05-21T20:55:15.147Z,6.23
2018-05-21T20:57:42.661Z,4.20
2018-05-21T21:00:10.194Z,3.50
2018-05-21T21:02:37.713Z,3.53
2018-05-21T21:05:05.209Z,3.00
2018-05-21T21:07:33.510Z,3.07
2018-05-21T21:10:01.778Z,5.30
2018-05-21T21:12:30.073Z,4.13
2018-05-21T21:14:57.580Z,3.90
2018-05-21T21:17:25.089Z,6.03
2018-05-21T21:19:52.603Z,3.80
2018-05-21T21:22:20.108Z,3.73
2018-05-21T21:24:47.645Z,4.23
2018-05-21T21:27:15.921Z,13.07
2018-05-21T21:29:44.203Z,5.67
2018-05-21T21:32:12.497Z,4.63
2018-05-21T21:34:40.006Z,13.60
2018-05-21T21:37:07.526Z,6.50
2018-05-21T21:39:35.028Z,3.80
2018-05-21T21:42:02.532Z,4.57
2018-05-21T21:44:30.140Z,6.83
2018-05-21T21:46:57.581Z,3.87
2018-05-21T21:49:25.093Z,5.73
2018-05-21T21:51:53.396Z,9.63
2018-05-21T21:54:20.907Z,5.87
2018-05-21T21:56:49.176Z,4.00
2018-05-21T21:59:16.696Z,4.83
2018-05-21T22:01:44.196Z,5.10
2018-05-21T22:04:11.714Z,3.70
2018-05-21T22:06:39.245Z,6.83
2018-05-21T22:09:06.764Z,5.67
2018-05-21T22:11:34.314Z,3.97
2018-05-21T22:14:01.824Z,6.10
2018-05-21T22:16:29.336Z,4.30
2018-05-21T22:18:56.872Z,4.33
2018-05-21T22:21:24.386Z,4.70
2018-05-21T22:23:52.685Z,5.27
2018-05-21T22:26:20.188Z,5.27
2018-05-21T22:28:47.706Z,16.43
2018-05-21T22:31:15.241Z,5.33
2018-05-21T22:33:43.509Z,10.83
2018-05-21T22:36:11.818Z,5.77
2018-05-21T22:38:39.335Z,3.60
2018-05-21T22:41:07.621Z,5.47
2018-05-21T22:43:35.922Z,4.70
2018-05-21T22:46:03.431Z,4.60
2018-05-21T22:48:30.956Z,8.00
2018-05-21T22:50:58.482Z,5.40
2018-05-21T22:53:25.985Z,6.33
2018-05-21T22:55:53.511Z,5.53
2018-05-21T22:58:21.039Z,7.00
2018-05-21T23:00:49.346Z,3.63
2018-05-21T23:03:16.869Z,5.00
2018-05-21T23:05:44.385Z,4.80
2018-05-21T23:08:11.911Z,3.77
2018-05-21T23:10:39.425Z,5.90
2018-05-21T23:13:06.933Z,13.30
2018-05-21T23:15:34.448Z,5.40
2018-05-21T23:18:01.954Z,7.33
2018-05-21T23:20:29.495Z,5.53
2018-05-21T23:22:57.780Z,5.83
2018-05-21T23:25:25.303Z,4.77
2018-05-21T23:27:52.828Z,5.77
2018-05-21T23:30:20.350Z,4.33
2018-05-21T23:32:48.659Z,5.20
2018-05-21T23:35:16.156Z,6.80
2018-05-21T23:37:43.660Z,9.80
2018-05-21T23:40:11.198Z,10.70
2018-05-21T23:42:39.482Z,7.23
2018-05-21T23:45:07.025Z,5.30
2018-05-21T23:47:35.306Z,9.47
2018-05-21T23:50:03.571Z,6.10
2018-05-21T23:52:31.095Z,4.97
2018-05-21T23:54:58.611Z,6.30
2018-05-21T23:57:26.145Z,11.27
2018-05-21T23:59:53.705Z,5.17
